sensor_id;sensor_type;location;lat;lon;timestamp;pressure;altitude;pressure_sealevel;temperature;humidity
55604;BME280;41468;48.838;9.330;2022-12-07T00:01:32;98399.78;;;4.73;100.00
55604;BME280;41468;48.838;9.330;2022-12-07T00:04:00;98403.09;;;4.79;100.00
55604;BME280;41468;48.838;9.330;2022-12-07T00:06:36;98391.50;;;4.70;100.00
55604;BME280;41468;48.838;9.330;2022-12-07T00:09:05;98399.78;;;4.73;100.00
55604;BME280;41468;48.838;9.330;2022-12-07T00:11:32;98402.47;;;4.73;100.00
55604;BME280;41468;48.838;9.330;2022-12-07T00:14:01;98389.13;;;4.68;100.00
55604;BME280;41468;48.838;9.330;2022-12-07T00:16:31;98392.16;;;4.67;100.00
55604;BME280;41468;48.838;9.330;2022-12-07T00:18:58;98393.72;;;4.76;100.00
55604;BME280;41468;48.838;9.330;2022-12-07T00:21:28;98395.16;;;4.74;100.00
55604;BME280;41468;48.838;9.330;2022-12-07T00:23:56;98394.22;;;4.70;100.00
55604;BME280;41468;48.838;9.330;2022-12-07T00:26:26;98392.44;;;4.74;100.00
55604;BME280;41468;48.838;9.330;2022-12-07T00:28:55;98394.19;;;4.78;99.80
55604;BME280;41468;48.838;9.330;2022-12-07T00:31:25;98395.75;;;4.79;100.00
55604;BME280;41468;48.838;9.330;2022-12-07T00:33:52;98395.44;;;4.81;99.86
55604;BME280;41468;48.838;9.330;2022-12-07T00:36:21;98392.44;;;4.74;100.00
55604;BME280;41468;48.838;9.330;2022-12-07T00:38:53;98393.72;;;4.76;99.73
55604;BME280;41468;48.838;9.330;2022-12-07T00:41:22;98388.91;;;4.82;99.60
55604;BME280;41468;48.838;9.330;2022-12-07T00:43:50;98394.19;;;4.78;98.68
55604;BME280;41468;48.838;9.330;2022-12-07T00:46:17;98391.66;;;4.73;98.74
55604;BME280;41468;48.838;9.330;2022-12-07T00:48:44;98392.44;;;4.74;99.34
55604;BME280;41468;48.838;9.330;2022-12-07T00:51:13;98387.16;;;4.77;99.32
55604;BME280;41468;48.838;9.330;2022-12-07T00:53:40;98389.75;;;4.74;99.02
55604;BME280;41468;48.838;9.330;2022-12-07T00:56:19;98386.69;;;4.75;99.20
55604;BME280;41468;48.838;9.330;2022-12-07T00:58:51;98392.94;;;4.76;98.82
55604;BME280;41468;48.838;9.330;2022-12-07T01:01:18;98393.09;;;4.71;99.34
55604;BME280;41468;48.838;9.330;2022-12-07T01:03:44;98391.50;;;4.70;98.92
55604;BME280;41468;48.838;9.330;2022-12-07T01:06:15;98398.16;;;4.72;99.22
55604;BME280;41468;48.838;9.330;2022-12-07T01:08:42;98388.66;;;4.66;99.33
55604;BME280;41468;48.838;9.330;2022-12-07T01:11:12;98395.47;;;4.72;99.38
55604;BME280;41468;48.838;9.330;2022-12-07T01:13:39;98391.56;;;4.61;99.63
55604;BME280;41468;48.838;9.330;2022-12-07T01:16:06;98392.88;;;4.55;100.00
55604;BME280;41468;48.838;9.330;2022-12-07T01:18:35;98391.75;;;4.56;100.00
55604;BME280;41468;48.838;9.330;2022-12-07T01:21:05;98393.91;;;4.71;99.38
55604;BME280;41468;48.838;9.330;2022-12-07T01:23:35;98401.72;;;4.64;99.45
55604;BME280;41468;48.838;9.330;2022-12-07T01:26:04;98399.13;;;4.76;99.16
55604;BME280;41468;48.838;9.330;2022-12-07T01:28:32;98398.84;;;4.69;99.19
55604;BME280;41468;48.838;9.330;2022-12-07T01:31:14;98401.72;;;4.64;99.58
55604;BME280;41468;48.838;9.330;2022-12-07T01:33:47;98397.16;;;4.85;98.59
55604;BME280;41468;48.838;9.330;2022-12-07T01:36:35;98402.84;;;4.93;97.47
55604;BME280;41468;48.838;9.330;2022-12-07T01:39:04;98403.97;;;4.92;97.19
55604;BME280;41468;48.838;9.330;2022-12-07T01:41:34;98407.13;;;4.94;97.04
55604;BME280;41468;48.838;9.330;2022-12-07T01:44:21;98400.31;;;4.87;97.95
55604;BME280;41468;48.838;9.330;2022-12-07T01:52:12;98409.56;;;4.86;97.83
55604;BME280;41468;48.838;9.330;2022-12-07T01:54:40;98408.03;;;4.77;97.88
55604;BME280;41468;48.838;9.330;2022-12-07T01:57:08;98405.56;;;4.63;98.45
55604;BME280;41468;48.838;9.330;2022-12-07T01:59:35;98406.94;;;4.69;99.25
55604;BME280;41468;48.838;9.330;2022-12-07T02:02:07;98408.06;;;4.68;98.90
55604;BME280;41468;48.838;9.330;2022-12-07T02:04:36;98406.66;;;4.62;99.08
55604;BME280;41468;48.838;9.330;2022-12-07T02:07:03;98408.72;;;4.65;98.67
55604;BME280;41468;48.838;9.330;2022-12-07T02:09:31;98408.91;;;4.60;99.29
55604;BME280;41468;48.838;9.330;2022-12-07T02:11:58;98408.13;;;4.59;99.04
55604;BME280;41468;48.838;9.330;2022-12-07T02:14:24;98404.25;;;4.69;99.03
55604;BME280;41468;48.838;9.330;2022-12-07T02:17:25;98408.03;;;4.77;97.69
55604;BME280;41468;48.838;9.330;2022-12-07T02:31:46;98394.59;;;4.89;96.75
55604;BME280;41468;48.838;9.330;2022-12-07T02:37:08;98384.34;;;4.74;95.91
55604;BME280;41468;48.838;9.330;2022-12-07T02:39:42;98388.84;;;4.91;95.82
55604;BME280;41468;48.838;9.330;2022-12-07T02:42:23;98387.81;;;5.04;94.86
55604;BME280;41468;48.838;9.330;2022-12-07T02:44:52;98376.94;;;4.83;94.83
55604;BME280;41468;48.838;9.330;2022-12-07T02:47:20;98391.56;;;4.61;95.99
55604;BME280;41468;48.838;9.330;2022-12-07T02:49:49;98380.56;;;4.66;96.59
55604;BME280;41468;48.838;9.330;2022-12-07T02:52:15;98381.94;;;4.72;96.48
55604;BME280;41468;48.838;9.330;2022-12-07T02:54:42;98371.22;;;4.55;97.01
55604;BME280;41468;48.838;9.330;2022-12-07T02:57:26;98373.75;;;4.60;97.50
55604;BME280;41468;48.838;9.330;2022-12-07T03:00:16;98381.16;;;4.72;97.04
55604;BME280;41468;48.838;9.330;2022-12-07T03:02:58;98368.78;;;4.62;96.90
55604;BME280;41468;48.838;9.330;2022-12-07T03:11:06;98373.88;;;4.63;96.39
55604;BME280;41468;48.838;9.330;2022-12-07T03:13:41;98371.72;;;4.48;97.13
55604;BME280;41468;48.838;9.330;2022-12-07T03:16:37;98361.09;;;4.43;97.66
55604;BME280;41468;48.838;9.330;2022-12-07T03:19:13;98366.72;;;4.38;97.89
55604;BME280;41468;48.838;9.330;2022-12-07T03:21:44;98366.72;;;4.38;97.82
55604;BME280;41468;48.838;9.330;2022-12-07T03:24:21;98361.22;;;4.17;99.27
55604;BME280;41468;48.838;9.330;2022-12-07T03:26:52;98366.63;;;4.08;99.68
55604;BME280;41468;48.838;9.330;2022-12-07T03:29:28;98357.78;;;3.99;100.00
55604;BME280;41468;48.838;9.330;2022-12-07T03:32:08;98364.66;;;3.88;100.00
55604;BME280;41468;48.838;9.330;2022-12-07T03:34:46;98365.75;;;3.95;100.00
55604;BME280;41468;48.838;9.330;2022-12-07T03:37:29;98367.97;;;3.93;100.00
55604;BME280;41468;48.838;9.330;2022-12-07T03:40:32;98365.91;;;3.90;100.00
55604;BME280;41468;48.838;9.330;2022-12-07T03:43:02;98365.75;;;3.87;100.00
55604;BME280;41468;48.838;9.330;2022-12-07T03:50:48;98358.34;;;4.22;98.96
55604;BME280;41468;48.838;9.330;2022-12-07T03:53:45;98358.97;;;4.19;98.46
55604;BME280;41468;48.838;9.330;2022-12-07T03:56:13;98360.44;;;4.16;99.17
55604;BME280;41468;48.838;9.330;2022-12-07T03:58:40;98355.03;;;4.08;98.27
55604;BME280;41468;48.838;9.330;2022-12-07T04:01:08;98357.44;;;4.09;98.99
55604;BME280;41468;48.838;9.330;2022-12-07T04:03:35;98359.53;;;4.04;98.60
55604;BME280;41468;48.838;9.330;2022-12-07T04:06:01;98358.09;;;3.97;98.83
55604;BME280;41468;48.838;9.330;2022-12-07T04:08:28;98353.94;;;4.00;98.16
55604;BME280;41468;48.838;9.330;2022-12-07T04:10:55;98346.34;;;3.93;98.66
55604;BME280;41468;48.838;9.330;2022-12-07T04:13:22;98348.91;;;3.90;99.00
55604;BME280;41468;48.838;9.330;2022-12-07T04:15:49;98351.78;;;3.85;98.96
55604;BME280;41468;48.838;9.330;2022-12-07T04:18:15;98347.34;;;3.80;99.45
55604;BME280;41468;48.838;9.330;2022-12-07T04:20:42;98338.28;;;3.85;99.51
55604;BME280;41468;48.838;9.330;2022-12-07T04:23:09;98338.66;;;4.13;98.29
55604;BME280;41468;48.838;9.330;2022-12-07T04:25:35;98317.81;;;4.13;97.18
55604;BME280;41468;48.838;9.330;2022-12-07T04:28:02;98313.84;;;4.19;96.35
55604;BME280;41468;48.838;9.330;2022-12-07T04:30:29;98305.13;;;4.05;97.32
55604;BME280;41468;48.838;9.330;2022-12-07T04:32:55;98308.84;;;4.01;97.69
55604;BME280;41468;48.838;9.330;2022-12-07T04:35:22;98317.38;;;4.11;97.82
55604;BME280;41468;48.838;9.330;2022-12-07T04:37:49;98317.94;;;3.87;98.36
55604;BME280;41468;48.838;9.330;2022-12-07T04:40:15;98323.50;;;3.82;99.02
55604;BME280;41468;48.838;9.330;2022-12-07T04:42:42;98315.38;;;3.91;98.59
55604;BME280;41468;48.838;9.330;2022-12-07T04:45:09;98313.59;;;4.04;97.96
55604;BME280;41468;48.838;9.330;2022-12-07T04:47:36;98305.56;;;4.16;97.08
55604;BME280;41468;48.838;9.330;2022-12-07T04:50:03;98310.06;;;4.12;97.58
55604;BME280;41468;48.838;9.330;2022-12-07T04:52:30;98299.38;;;4.15;96.78
55604;BME280;41468;48.838;9.330;2022-12-07T04:54:57;98298.88;;;4.22;96.24
55604;BME280;41468;48.838;9.330;2022-12-07T04:57:24;98306.34;;;4.25;96.28
55604;BME280;41468;48.838;9.330;2022-12-07T04:59:50;98301.59;;;4.22;96.81
55604;BME280;41468;48.838;9.330;2022-12-07T05:02:17;98318.34;;;4.07;96.63
55604;BME280;41468;48.838;9.330;2022-12-07T05:04:44;98319.25;;;4.19;97.14
55604;BME280;41468;48.838;9.330;2022-12-07T05:07:10;98320.25;;;4.06;97.60
55604;BME280;41468;48.838;9.330;2022-12-07T05:09:37;98320.94;;;4.24;96.69
55604;BME280;41468;48.838;9.330;2022-12-07T05:12:03;98324.47;;;4.25;94.65
55604;BME280;41468;48.838;9.330;2022-12-07T05:14:30;98317.50;;;3.68;97.02
55604;BME280;41468;48.838;9.330;2022-12-07T05:17:01;98332.63;;;3.60;97.57
55604;BME280;41468;48.838;9.330;2022-12-07T05:19:28;98333.25;;;3.48;98.85
55604;BME280;41468;48.838;9.330;2022-12-07T05:21:55;98331.84;;;3.42;99.83
55604;BME280;41468;48.838;9.330;2022-12-07T05:24:21;98326.91;;;3.53;99.75
55604;BME280;41468;48.838;9.330;2022-12-07T05:26:48;98336.41;;;3.59;98.67
55604;BME280;41468;48.838;9.330;2022-12-07T05:29:16;98338.50;;;3.53;99.13
55604;BME280;41468;48.838;9.330;2022-12-07T05:31:43;98331.84;;;3.51;99.49
55604;BME280;41468;48.838;9.330;2022-12-07T05:34:11;98337.84;;;3.57;99.05
55604;BME280;41468;48.838;9.330;2022-12-07T05:36:38;98343.78;;;3.41;100.00
55604;BME280;41468;48.838;9.330;2022-12-07T05:39:05;98340.06;;;3.54;99.74
55604;BME280;41468;48.838;9.330;2022-12-07T05:41:32;98337.25;;;3.42;100.00
55604;BME280;41468;48.838;9.330;2022-12-07T05:44:17;98342.03;;;3.28;100.00
55604;BME280;41468;48.838;9.330;2022-12-07T05:46:44;98334.56;;;3.34;100.00
55604;BME280;41468;48.838;9.330;2022-12-07T05:49:10;98341.53;;;3.52;100.00
55604;BME280;41468;48.838;9.330;2022-12-07T05:51:37;98344.53;;;3.59;99.88
55604;BME280;41468;48.838;9.330;2022-12-07T05:54:04;98340.09;;;3.46;100.00
55604;BME280;41468;48.838;9.330;2022-12-07T05:56:35;98344.22;;;3.61;100.00
55604;BME280;41468;48.838;9.330;2022-12-07T05:59:02;98342.72;;;3.81;99.09
55604;BME280;41468;48.838;9.330;2022-12-07T06:01:57;98340.19;;;3.75;98.58
55604;BME280;41468;48.838;9.330;2022-12-07T06:04:27;98340.00;;;3.89;97.62
55604;BME280;41468;48.838;9.330;2022-12-07T06:06:54;98335.72;;;3.88;97.75
55604;BME280;41468;48.838;9.330;2022-12-07T06:09:23;98340.53;;;3.74;98.20
55604;BME280;41468;48.838;9.330;2022-12-07T06:11:50;98339.28;;;3.63;99.74
55604;BME280;41468;48.838;9.330;2022-12-07T06:14:36;98344.50;;;3.68;98.98
55604;BME280;41468;48.838;9.330;2022-12-07T06:17:02;98339.03;;;3.94;97.99
55604;BME280;41468;48.838;9.330;2022-12-07T06:19:29;98341.28;;;3.83;97.71
55604;BME280;41468;48.838;9.330;2022-12-07T06:21:56;98344.44;;;3.94;96.40
55604;BME280;41468;48.838;9.330;2022-12-07T06:24:23;98351.75;;;3.93;96.89
55604;BME280;41468;48.838;9.330;2022-12-07T06:26:50;98350.41;;;4.17;98.01
55604;BME280;41468;48.838;9.330;2022-12-07T06:29:17;98346.94;;;4.08;96.68
55604;BME280;41468;48.838;9.330;2022-12-07T06:31:45;98337.56;;;4.05;96.79
55604;BME280;41468;48.838;9.330;2022-12-07T06:34:20;98335.00;;;4.17;95.67
55604;BME280;41468;48.838;9.330;2022-12-07T06:36:49;98334.03;;;4.13;95.73
55604;BME280;41468;48.838;9.330;2022-12-07T06:39:19;98335.69;;;4.06;95.45
55604;BME280;41468;48.838;9.330;2022-12-07T06:41:46;98354.16;;;3.95;96.41
55604;BME280;41468;48.838;9.330;2022-12-07T06:44:13;98363.56;;;3.80;97.32
55604;BME280;41468;48.838;9.330;2022-12-07T06:46:39;98358.66;;;3.65;98.85
55604;BME280;41468;48.838;9.330;2022-12-07T06:49:06;98362.75;;;3.80;98.31
55604;BME280;41468;48.838;9.330;2022-12-07T06:51:34;98356.09;;;3.77;97.42
55604;BME280;41468;48.838;9.330;2022-12-07T06:54:14;98352.09;;;3.83;97.76
55604;BME280;41468;48.838;9.330;2022-12-07T06:56:41;98354.28;;;3.98;96.97
55604;BME280;41468;48.838;9.330;2022-12-07T06:59:08;98357.13;;;4.02;96.76
55604;BME280;41468;48.838;9.330;2022-12-07T07:01:35;98358.94;;;3.81;97.92
55604;BME280;41468;48.838;9.330;2022-12-07T07:04:02;98363.09;;;3.69;98.63
55604;BME280;41468;48.838;9.330;2022-12-07T07:06:29;98352.00;;;3.53;99.62
55604;BME280;41468;48.838;9.330;2022-12-07T07:08:55;98358.19;;;3.54;99.54
55604;BME280;41468;48.838;9.330;2022-12-07T07:11:22;98353.88;;;3.62;99.22
55604;BME280;41468;48.838;9.330;2022-12-07T07:13:49;98357.69;;;3.69;99.04
55604;BME280;41468;48.838;9.330;2022-12-07T07:16:16;98358.34;;;3.66;98.70
55604;BME280;41468;48.838;9.330;2022-12-07T07:18:53;98355.75;;;3.79;98.33
55604;BME280;41468;48.838;9.330;2022-12-07T07:21:20;98367.22;;;3.84;97.81
55604;BME280;41468;48.838;9.330;2022-12-07T07:23:47;98369.72;;;3.98;96.82
55604;BME280;41468;48.838;9.330;2022-12-07T07:26:13;98366.09;;;3.85;97.00
55604;BME280;41468;48.838;9.330;2022-12-07T07:28:48;98363.97;;;3.99;95.28
55604;BME280;41468;48.838;9.330;2022-12-07T07:31:14;98360.47;;;3.99;95.13
55604;BME280;41468;48.838;9.330;2022-12-07T07:33:41;98369.03;;;4.10;94.65
55604;BME280;41468;48.838;9.330;2022-12-07T07:36:08;98376.22;;;3.97;94.91
55604;BME280;41468;48.838;9.330;2022-12-07T07:38:35;98373.50;;;3.97;95.47
55604;BME280;41468;48.838;9.330;2022-12-07T07:41:01;98369.41;;;3.91;96.18
55604;BME280;41468;48.838;9.330;2022-12-07T07:43:28;98378.44;;;4.04;95.04
55604;BME280;41468;48.838;9.330;2022-12-07T07:45:55;98380.97;;;4.09;93.77
55604;BME280;41468;48.838;9.330;2022-12-07T07:48:21;98375.56;;;4.00;94.85
55604;BME280;41468;48.838;9.330;2022-12-07T07:50:51;98381.78;;;3.92;94.75
55604;BME280;41468;48.838;9.330;2022-12-07T07:53:18;98383.56;;;3.88;95.50
55604;BME280;41468;48.838;9.330;2022-12-07T07:55:54;98377.47;;;3.99;94.36
55604;BME280;41468;48.838;9.330;2022-12-07T07:58:21;98386.38;;;4.09;92.68
55604;BME280;41468;48.838;9.330;2022-12-07T08:00:48;98383.06;;;4.03;93.19
55604;BME280;41468;48.838;9.330;2022-12-07T08:03:14;98377.13;;;4.10;93.87
55604;BME280;41468;48.838;9.330;2022-12-07T08:05:41;98387.81;;;4.06;93.40
55604;BME280;41468;48.838;9.330;2022-12-07T08:08:08;98387.50;;;3.99;93.55
55604;BME280;41468;48.838;9.330;2022-12-07T08:10:35;98389.50;;;4.11;93.99
55604;BME280;41468;48.838;9.330;2022-12-07T08:13:03;98389.69;;;4.14;93.11
55604;BME280;41468;48.838;9.330;2022-12-07T08:15:42;98388.25;;;4.17;93.71
55604;BME280;41468;48.838;9.330;2022-12-07T08:18:10;98384.91;;;4.20;91.47
55604;BME280;41468;48.838;9.330;2022-12-07T08:20:38;98384.22;;;4.32;90.87
55604;BME280;41468;48.838;9.330;2022-12-07T08:23:06;98388.34;;;4.38;89.29
55604;BME280;41468;48.838;9.330;2022-12-07T08:25:33;98383.19;;;4.45;87.94
55604;BME280;41468;48.838;9.330;2022-12-07T08:28:01;98388.16;;;4.34;89.60
55604;BME280;41468;48.838;9.330;2022-12-07T08:30:28;98391.66;;;4.43;88.41
55604;BME280;41468;48.838;9.330;2022-12-07T08:32:56;98396.09;;;4.39;87.71
55604;BME280;41468;48.838;9.330;2022-12-07T08:35:23;98397.66;;;4.49;88.78
55604;BME280;41468;48.838;9.330;2022-12-07T08:37:50;98394.00;;;4.45;89.54
55604;BME280;41468;48.838;9.330;2022-12-07T08:40:17;98394.50;;;4.47;89.08
55604;BME280;41468;48.838;9.330;2022-12-07T08:42:49;98400.16;;;4.63;85.88
55604;BME280;41468;48.838;9.330;2022-12-07T08:45:17;98395.28;;;4.48;86.60
55604;BME280;41468;48.838;9.330;2022-12-07T08:47:57;98401.63;;;4.52;85.70
55604;BME280;41468;48.838;9.330;2022-12-07T08:50:25;98391.47;;;4.49;87.18
55604;BME280;41468;48.838;9.330;2022-12-07T08:52:54;98395.75;;;4.50;88.54
55604;BME280;41468;48.838;9.330;2022-12-07T08:55:21;98402.38;;;4.61;86.56
55604;BME280;41468;48.838;9.330;2022-12-07T08:57:48;98397.06;;;4.73;86.06
55604;BME280;41468;48.838;9.330;2022-12-07T09:00:16;98394.63;;;4.80;86.66
55604;BME280;41468;48.838;9.330;2022-12-07T09:02:45;98400.28;;;4.67;85.62
55604;BME280;41468;48.838;9.330;2022-12-07T09:05:13;98397.25;;;4.68;85.89
55604;BME280;41468;48.838;9.330;2022-12-07T09:07:48;98395.47;;;4.72;86.04
55604;BME280;41468;48.838;9.330;2022-12-07T09:10:18;98392.09;;;4.84;85.72
55604;BME280;41468;48.838;9.330;2022-12-07T09:12:44;98391.25;;;4.83;85.72
55604;BME280;41468;48.838;9.330;2022-12-07T09:15:11;98389.78;;;4.95;83.43
55604;BME280;41468;48.838;9.330;2022-12-07T09:17:38;98388.59;;;5.04;85.42
55604;BME280;41468;48.838;9.330;2022-12-07T09:20:05;98386.47;;;5.10;84.80
55604;BME280;41468;48.838;9.330;2022-12-07T09:22:33;98393.50;;;5.11;84.24
55604;BME280;41468;48.838;9.330;2022-12-07T09:25:00;98390.97;;;5.06;84.46
55604;BME280;41468;48.838;9.330;2022-12-07T09:27:27;98394.16;;;5.08;84.57
55604;BME280;41468;48.838;9.330;2022-12-07T09:29:54;98393.13;;;5.21;83.70
55604;BME280;41468;48.838;9.330;2022-12-07T09:32:22;98394.09;;;5.17;83.06
55604;BME280;41468;48.838;9.330;2022-12-07T09:34:49;98396.06;;;5.28;83.14
55604;BME280;41468;48.838;9.330;2022-12-07T09:37:16;98393.03;;;5.30;82.45
55604;BME280;41468;48.838;9.330;2022-12-07T09:39:43;98399.25;;;5.30;79.46
55604;BME280;41468;48.838;9.330;2022-12-07T09:42:29;98394.41;;;5.36;80.84
55604;BME280;41468;48.838;9.330;2022-12-07T09:44:57;98398.78;;;5.49;78.94
55604;BME280;41468;48.838;9.330;2022-12-07T09:47:25;98395.50;;;5.56;77.43
55604;BME280;41468;48.838;9.330;2022-12-07T09:49:55;98393.22;;;5.46;76.50
55604;BME280;41468;48.838;9.330;2022-12-07T09:52:28;98395.19;;;5.37;79.90
55604;BME280;41468;48.838;9.330;2022-12-07T09:55:12;98383.78;;;5.52;79.96
55604;BME280;41468;48.838;9.330;2022-12-07T09:57:40;98388.13;;;5.44;80.67
55604;BME280;41468;48.838;9.330;2022-12-07T10:00:18;98379.69;;;5.46;76.87
55604;BME280;41468;48.838;9.330;2022-12-07T10:02:59;98378.16;;;5.36;78.48
55604;BME280;41468;48.838;9.330;2022-12-07T10:05:42;98377.78;;;5.25;79.01
55604;BME280;41468;48.838;9.330;2022-12-07T10:08:12;98372.56;;;5.41;76.94
55604;BME280;41468;48.838;9.330;2022-12-07T10:10:39;98362.19;;;5.43;79.60
55604;BME280;41468;48.838;9.330;2022-12-07T10:13:11;98367.81;;;5.38;79.84
55604;BME280;41468;48.838;9.330;2022-12-07T10:15:55;98365.34;;;5.45;79.54
55604;BME280;41468;48.838;9.330;2022-12-07T10:18:33;98363.25;;;5.51;78.92
55604;BME280;41468;48.838;9.330;2022-12-07T10:21:21;98360.44;;;5.60;78.04
55604;BME280;41468;48.838;9.330;2022-12-07T10:24:02;98357.00;;;5.50;79.02
55604;BME280;41468;48.838;9.330;2022-12-07T10:26:50;98358.25;;;5.53;77.38
55604;BME280;41468;48.838;9.330;2022-12-07T10:29:24;98358.63;;;5.51;78.93
55604;BME280;41468;48.838;9.330;2022-12-07T10:31:58;98351.16;;;5.48;79.09
55604;BME280;41468;48.838;9.330;2022-12-07T10:34:27;98351.09;;;5.36;80.65
55604;BME280;41468;48.838;9.330;2022-12-07T10:42:22;98352.41;;;5.51;79.52
55604;BME280;41468;48.838;9.330;2022-12-07T10:44:50;98347.25;;;5.37;78.68
55604;BME280;41468;48.838;9.330;2022-12-07T10:47:39;98344.94;;;5.48;78.92
55604;BME280;41468;48.838;9.330;2022-12-07T11:01:23;98331.75;;;5.59;80.16
55604;BME280;41468;48.838;9.330;2022-12-07T11:15:17;98321.09;;;5.41;79.79
55604;BME280;41468;48.838;9.330;2022-12-07T11:23:44;98310.69;;;5.64;80.67
55604;BME280;41468;48.838;9.330;2022-12-07T11:34:17;98305.50;;;5.71;81.34
55604;BME280;41468;48.838;9.330;2022-12-07T11:36:49;98303.25;;;5.73;82.48
55604;BME280;41468;48.838;9.330;2022-12-07T11:39:23;98303.00;;;5.66;83.03
55604;BME280;41468;48.838;9.330;2022-12-07T11:41:59;98294.78;;;5.63;83.48
55604;BME280;41468;48.838;9.330;2022-12-07T11:44:35;98295.09;;;5.61;84.50
55604;BME280;41468;48.838;9.330;2022-12-07T11:47:18;98295.56;;;5.63;83.99
55604;BME280;41468;48.838;9.330;2022-12-07T11:50:13;98289.25;;;5.59;84.81
55604;BME280;41468;48.838;9.330;2022-12-07T11:52:58;98292.72;;;5.60;83.63
55604;BME280;41468;48.838;9.330;2022-12-07T11:57:58;98282.88;;;5.55;84.12
55604;BME280;41468;48.838;9.330;2022-12-07T12:00:27;98286.69;;;5.42;85.37
55604;BME280;41468;48.838;9.330;2022-12-07T12:03:04;98281.25;;;5.29;85.96
55604;BME280;41468;48.838;9.330;2022-12-07T12:05:35;98282.63;;;5.36;85.44
55604;BME280;41468;48.838;9.330;2022-12-07T12:08:14;98281.47;;;5.24;85.05
55604;BME280;41468;48.838;9.330;2022-12-07T12:19:22;98273.38;;;5.16;85.82
55604;BME280;41468;48.838;9.330;2022-12-07T12:21:57;98271.06;;;5.26;84.92
55604;BME280;41468;48.838;9.330;2022-12-07T12:24:28;98262.72;;;5.31;84.64
55604;BME280;41468;48.838;9.330;2022-12-07T12:27:09;98268.81;;;5.28;84.95
55604;BME280;41468;48.838;9.330;2022-12-07T12:29:41;98266.47;;;5.27;84.95
55604;BME280;41468;48.838;9.330;2022-12-07T12:32:28;98260.91;;;5.23;84.84
55604;BME280;41468;48.838;9.330;2022-12-07T12:35:01;98254.97;;;5.30;84.81
55604;BME280;41468;48.838;9.330;2022-12-07T12:40:38;98264.56;;;5.40;84.51
55604;BME280;41468;48.838;9.330;2022-12-07T12:43:44;98260.50;;;5.34;85.93
55604;BME280;41468;48.838;9.330;2022-12-07T12:51:58;98255.06;;;5.34;85.41
55604;BME280;41468;48.838;9.330;2022-12-07T12:57:09;98244.00;;;5.26;86.04
55604;BME280;41468;48.838;9.330;2022-12-07T12:59:57;98241.34;;;5.39;84.20
55604;BME280;41468;48.838;9.330;2022-12-07T13:02:28;98245.38;;;5.32;84.39
55604;BME280;41468;48.838;9.330;2022-12-07T13:05:14;98248.53;;;5.35;85.11
55604;BME280;41468;48.838;9.330;2022-12-07T13:15:52;98228.03;;;5.46;83.36
55604;BME280;41468;48.838;9.330;2022-12-07T13:21:39;98213.94;;;5.40;84.00
55604;BME280;41468;48.838;9.330;2022-12-07T13:31:42;98226.84;;;5.68;85.28
55604;BME280;41468;48.838;9.330;2022-12-07T13:34:38;98215.97;;;5.56;84.60
55604;BME280;41468;48.838;9.330;2022-12-07T13:37:21;98216.41;;;5.45;84.51
55604;BME280;41468;48.838;9.330;2022-12-07T13:39:55;98216.06;;;5.47;84.25
55604;BME280;41468;48.838;9.330;2022-12-07T13:42:32;98211.78;;;5.46;83.43
55604;BME280;41468;48.838;9.330;2022-12-07T13:45:20;98216.63;;;5.40;84.22
55604;BME280;41468;48.838;9.330;2022-12-07T13:47:58;98216.63;;;5.40;84.13
55604;BME280;41468;48.838;9.330;2022-12-07T13:50:30;98218.53;;;5.40;85.16
55604;BME280;41468;48.838;9.330;2022-12-07T13:52:59;98209.75;;;5.43;85.43
55604;BME280;41468;48.838;9.330;2022-12-07T13:55:27;98209.50;;;5.36;85.04
55604;BME280;41468;48.838;9.330;2022-12-07T13:57:55;98204.78;;;5.32;85.51
55604;BME280;41468;48.838;9.330;2022-12-07T14:00:24;98202.53;;;5.47;85.73
55604;BME280;41468;48.838;9.330;2022-12-07T14:02:56;98212.78;;;5.41;86.24
55604;BME280;41468;48.838;9.330;2022-12-07T14:05:26;98216.84;;;5.47;86.01
55604;BME280;41468;48.838;9.330;2022-12-07T14:07:54;98206.38;;;5.46;86.49
55604;BME280;41468;48.838;9.330;2022-12-07T14:10:30;98216.28;;;5.42;87.45
55604;BME280;41468;48.838;9.330;2022-12-07T14:12:58;98211.66;;;5.42;86.45
55604;BME280;41468;48.838;9.330;2022-12-07T14:15:33;98209.75;;;5.43;86.16
55604;BME280;41468;48.838;9.330;2022-12-07T14:18:02;98212.91;;;5.45;86.14
55604;BME280;41468;48.838;9.330;2022-12-07T14:20:39;98199.59;;;5.52;85.93
55604;BME280;41468;48.838;9.330;2022-12-07T14:23:27;98205.91;;;5.44;85.55
55604;BME280;41468;48.838;9.330;2022-12-07T14:25:54;98204.91;;;5.61;85.43
55604;BME280;41468;48.838;9.330;2022-12-07T14:28:32;98209.53;;;5.48;86.06
55604;BME280;41468;48.838;9.330;2022-12-07T14:31:00;98210.66;;;5.47;86.73
55604;BME280;41468;48.838;9.330;2022-12-07T14:33:28;98206.81;;;5.48;86.18
55604;BME280;41468;48.838;9.330;2022-12-07T14:35:55;98208.94;;;5.42;86.74
55604;BME280;41468;48.838;9.330;2022-12-07T14:38:25;98203.22;;;5.44;86.79
55604;BME280;41468;48.838;9.330;2022-12-07T14:40:53;98204.81;;;5.57;85.79
55604;BME280;41468;48.838;9.330;2022-12-07T14:43:20;98200.75;;;5.51;86.55
55604;BME280;41468;48.838;9.330;2022-12-07T14:45:47;98205.00;;;5.40;87.19
55604;BME280;41468;48.838;9.330;2022-12-07T14:48:15;98193.94;;;5.45;86.51
55604;BME280;41468;48.838;9.330;2022-12-07T14:51:02;98205.69;;;5.49;86.67
55604;BME280;41468;48.838;9.330;2022-12-07T14:53:50;98202.31;;;5.52;86.13
55604;BME280;41468;48.838;9.330;2022-12-07T14:56:23;98206.16;;;5.51;86.20
55604;BME280;41468;48.838;9.330;2022-12-07T14:58:50;98210.41;;;5.40;85.76
55604;BME280;41468;48.838;9.330;2022-12-07T15:01:17;98211.53;;;5.39;86.38
55604;BME280;41468;48.838;9.330;2022-12-07T15:03:43;98212.00;;;5.41;85.25
55604;BME280;41468;48.838;9.330;2022-12-07T15:06:13;98209.97;;;5.38;84.95
55604;BME280;41468;48.838;9.330;2022-12-07T15:08:40;98210.72;;;5.26;86.19
55604;BME280;41468;48.838;9.330;2022-12-07T15:11:12;98208.16;;;5.29;86.16
55604;BME280;41468;48.838;9.330;2022-12-07T15:13:39;98215.94;;;5.31;86.67
55604;BME280;41468;48.838;9.330;2022-12-07T15:16:24;98210.84;;;5.29;86.94
55604;BME280;41468;48.838;9.330;2022-12-07T15:18:51;98210.03;;;5.29;87.13
55604;BME280;41468;48.838;9.330;2022-12-07T15:21:38;98219.88;;;5.21;86.86
55604;BME280;41468;48.838;9.330;2022-12-07T15:24:05;98220.34;;;5.36;85.87
55604;BME280;41468;48.838;9.330;2022-12-07T15:26:32;98216.28;;;5.29;86.26